createdAt,value
2018-09-17T00:01:23.644Z,82.12
2018-09-17T00:03:51.967Z,82.19
2018-09-17T00:06:20.283Z,82.49
2018-09-17T00:08:48.735Z,82.07
2018-09-17T00:11:17.050Z,82.40
2018-09-17T00:13:45.383Z,82.07
2018-09-17T00:16:13.874Z,82.65
2018-09-17T00:18:42.166Z,82.75
2018-09-17T00:21:10.480Z,82.56
2018-09-17T00:23:38.849Z,83.01
2018-09-17T00:26:07.189Z,82.57
2018-09-17T00:28:35.510Z,82.79
2018-09-17T00:31:03.835Z,82.47
2018-09-17T00:33:32.178Z,82.52
2018-09-17T00:36:00.475Z,82.82
2018-09-17T00:38:28.788Z,82.63
2018-09-17T00:40:57.098Z,83.21
2018-09-17T00:43:25.409Z,83.48
2018-09-17T00:45:53.727Z,83.56
2018-09-17T00:48:22.016Z,83.15
2018-09-17T00:50:50.325Z,83.51
2018-09-17T00:53:18.736Z,83.58
2018-09-17T00:55:47.038Z,82.95
2018-09-17T00:58:15.318Z,82.92
2018-09-17T01:00:43.923Z,83.74
2018-09-17T01:03:12.336Z,83.17
2018-09-17T01:05:40.623Z,83.54
2018-09-17T01:08:08.943Z,84.00
2018-09-17T01:10:37.293Z,83.22
2018-09-17T01:13:05.565Z,83.08
2018-09-17T01:15:33.874Z,83.70
2018-09-17T01:18:02.178Z,83.49
2018-09-17T01:20:30.537Z,83.76
2018-09-17T01:22:58.809Z,83.80
2018-09-17T01:25:27.082Z,83.89
2018-09-17T01:27:55.390Z,83.81
2018-09-17T01:30:30.133Z,83.66
2018-09-17T01:32:58.417Z,83.77
2018-09-17T01:35:26.717Z,83.79
2018-09-17T01:37:55.044Z,84.04
2018-09-17T01:40:23.341Z,83.46
2018-09-17T01:42:51.694Z,83.74
2018-09-17T01:45:20.010Z,84.23
2018-09-17T01:47:48.291Z,84.03
2018-09-17T01:50:16.580Z,83.99
2018-09-17T01:52:44.918Z,83.67
2018-09-17T01:55:13.227Z,83.81
2018-09-17T01:57:41.502Z,84.04
2018-09-17T02:00:09.794Z,83.56
2018-09-17T02:02:38.068Z,83.67
2018-09-17T02:05:06.545Z,83.45
2018-09-17T02:07:34.881Z,84.12
2018-09-17T02:10:03.355Z,83.80
2018-09-17T02:12:31.585Z,83.72
2018-09-17T02:14:59.865Z,83.67
2018-09-17T02:17:29.057Z,83.71
2018-09-17T02:19:57.337Z,83.41
2018-09-17T02:22:25.660Z,83.70
2018-09-17T02:24:54.143Z,83.81
2018-09-17T02:27:22.505Z,83.22
2018-09-17T02:29:57.596Z,84.18
2018-09-17T02:32:25.986Z,84.02
2018-09-17T02:34:54.330Z,83.96
2018-09-17T02:37:22.633Z,83.94
2018-09-17T02:39:51.167Z,83.71
2018-09-17T02:42:19.453Z,83.97
2018-09-17T02:44:47.747Z,84.13
2018-09-17T02:47:16.082Z,83.88
2018-09-17T02:49:44.399Z,84.39
2018-09-17T02:52:12.686Z,84.07
2018-09-17T02:54:40.969Z,84.51
2018-09-17T02:57:09.252Z,83.95
2018-09-17T02:59:37.546Z,84.67
2018-09-17T03:02:06.056Z,84.28
2018-09-17T03:04:34.353Z,84.17
2018-09-17T03:07:02.704Z,83.99
2018-09-17T03:09:31.007Z,84.60
2018-09-17T03:11:59.349Z,84.62
2018-09-17T03:14:29.402Z,84.16
2018-09-17T03:17:15.655Z,84.29
2018-09-17T03:19:44.974Z,84.91
2018-09-17T03:22:14.163Z,84.22
2018-09-17T03:24:42.511Z,84.43
2018-09-17T03:27:10.827Z,84.64
2018-09-17T03:29:39.206Z,84.39
2018-09-17T03:32:07.506Z,84.48
2018-09-17T03:34:35.769Z,84.37
2018-09-17T03:37:04.102Z,84.00
2018-09-17T03:39:32.425Z,84.11
2018-09-17T03:42:00.778Z,84.50
2018-09-17T03:44:29.091Z,84.88
2018-09-17T03:46:57.394Z,84.47
2018-09-17T03:49:25.714Z,84.29
2018-09-17T03:51:54.049Z,84.40
2018-09-17T03:54:22.307Z,84.35
2018-09-17T03:56:50.640Z,84.55
2018-09-17T03:59:18.957Z,84.95
2018-09-17T04:01:47.284Z,84.27
2018-09-17T04:04:22.833Z,85.02
2018-09-17T04:06:51.193Z,84.86
2018-09-17T04:09:19.496Z,84.57
2018-09-17T04:11:47.870Z,85.15
2018-09-17T04:14:16.195Z,85.31
2018-09-17T04:16:44.511Z,85.15
2018-09-17T04:19:12.872Z,84.62
2018-09-17T04:21:41.165Z,85.36
2018-09-17T04:24:09.472Z,84.66
2018-09-17T04:26:37.757Z,85.31
2018-09-17T04:29:06.222Z,84.79
2018-09-17T04:31:34.514Z,84.71
2018-09-17T04:34:02.855Z,85.12
2018-09-17T04:36:31.194Z,85.23
2018-09-17T04:38:59.525Z,84.96
2018-09-17T04:41:27.832Z,85.05
2018-09-17T04:43:56.155Z,85.11
2018-09-17T04:46:24.485Z,85.17
2018-09-17T04:48:52.802Z,84.82
2018-09-17T04:51:21.231Z,85.07
2018-09-17T04:53:49.561Z,85.03
2018-09-17T04:56:17.902Z,84.86
2018-09-17T04:58:46.202Z,84.80
2018-09-17T05:01:14.493Z,84.85
2018-09-17T05:03:42.781Z,85.16
2018-09-17T05:06:11.053Z,85.13
2018-09-17T05:08:39.348Z,84.94
2018-09-17T05:11:07.663Z,84.77
2018-09-17T05:13:35.996Z,84.41
2018-09-17T05:16:04.421Z,85.13
2018-09-17T05:18:32.761Z,84.75
2018-09-17T05:21:01.049Z,84.69
2018-09-17T05:23:29.354Z,84.92
2018-09-17T05:25:57.658Z,84.59
2018-09-17T05:28:25.961Z,84.98
2018-09-17T05:30:54.263Z,85.38
2018-09-17T05:33:22.537Z,84.68
2018-09-17T05:35:50.946Z,85.32
2018-09-17T05:38:19.671Z,85.05
2018-09-17T05:40:47.951Z,84.47
2018-09-17T05:43:16.257Z,84.83
2018-09-17T05:45:44.571Z,84.75
2018-09-17T05:48:12.935Z,85.25
2018-09-17T05:50:41.244Z,84.45
2018-09-17T05:53:09.644Z,84.84
2018-09-17T05:55:37.943Z,84.75
2018-09-17T05:58:06.314Z,84.73
2018-09-17T06:00:34.634Z,84.47
2018-09-17T06:03:02.910Z,84.14
2018-09-17T06:05:35.004Z,84.59
2018-09-17T06:08:03.309Z,84.41
2018-09-17T06:10:31.634Z,84.71
2018-09-17T06:12:59.917Z,83.61
2018-09-17T06:15:28.263Z,83.36
2018-09-17T06:17:56.519Z,82.86
2018-09-17T06:20:24.853Z,83.54
2018-09-17T06:22:53.190Z,83.03
2018-09-17T06:25:21.524Z,83.03
2018-09-17T06:27:49.847Z,83.12
2018-09-17T06:30:18.151Z,83.16
2018-09-17T06:32:46.445Z,83.09
2018-09-17T06:35:14.775Z,82.64
2018-09-17T06:37:49.527Z,81.76
2018-09-17T06:40:17.811Z,81.49
2018-09-17T06:42:46.150Z,81.43
2018-09-17T06:45:14.485Z,80.74
2018-09-17T06:47:42.867Z,81.43
2018-09-17T06:50:11.165Z,80.68
2018-09-17T06:52:39.733Z,80.70
2018-09-17T06:55:08.294Z,80.31
2018-09-17T06:57:36.614Z,80.03
2018-09-17T07:00:05.208Z,79.94
2018-09-17T07:02:33.545Z,80.11
2018-09-17T07:05:01.887Z,80.10
2018-09-17T07:07:30.197Z,79.36
2018-09-17T07:09:58.497Z,79.21
2018-09-17T07:12:26.777Z,79.02
2018-09-17T07:14:55.268Z,79.05
2018-09-17T07:17:23.549Z,78.88
2018-09-17T07:19:51.941Z,78.34
2018-09-17T07:22:20.258Z,78.60
2018-09-17T07:24:48.560Z,77.83
2018-09-17T07:27:16.857Z,77.59
2018-09-17T07:29:45.394Z,77.86
2018-09-17T07:32:13.697Z,76.07
2018-09-17T07:34:42.081Z,75.52
2018-09-17T07:37:10.453Z,75.22
2018-09-17T07:39:38.739Z,74.68
2018-09-17T07:42:07.131Z,75.48
2018-09-17T07:44:35.449Z,75.14
2018-09-17T07:47:03.785Z,74.77
2018-09-17T07:49:32.127Z,74.73
2018-09-17T07:52:00.919Z,73.92
2018-09-17T07:54:29.230Z,73.98
2018-09-17T07:56:57.790Z,73.53
2018-09-17T07:59:26.103Z,73.22
2018-09-17T08:01:54.455Z,73.12
2018-09-17T08:04:22.803Z,72.72
2018-09-17T08:06:51.159Z,72.81
2018-09-17T08:09:19.446Z,72.15
2018-09-17T08:11:47.807Z,71.64
2018-09-17T08:14:16.137Z,71.60
2018-09-17T08:16:44.485Z,71.35
2018-09-17T08:19:12.777Z,71.14
2018-09-17T08:21:41.078Z,69.51
2018-09-17T08:24:09.390Z,70.02
2018-09-17T08:26:37.672Z,68.99
2018-09-17T08:29:06.258Z,69.13
2018-09-17T08:31:34.613Z,69.04
2018-09-17T08:34:02.960Z,68.40
2018-09-17T08:36:31.252Z,68.49
2018-09-17T08:38:59.582Z,68.06
2018-09-17T08:41:27.861Z,68.06
2018-09-17T08:43:56.380Z,66.58
2018-09-17T08:46:24.834Z,66.76
2018-09-17T08:48:53.220Z,66.42
2018-09-17T08:51:22.286Z,66.53
2018-09-17T08:53:50.640Z,65.77
2018-09-17T08:56:22.157Z,65.48
2018-09-17T08:59:57.909Z,65.22
2018-09-17T09:03:30.641Z,64.83
2018-09-17T09:06:04.217Z,65.10
2018-09-17T09:08:32.506Z,64.56
2018-09-17T09:11:06.075Z,64.87
2018-09-17T09:13:34.401Z,63.98
2018-09-17T09:16:02.747Z,63.53
2018-09-17T09:18:31.066Z,63.25
2018-09-17T09:20:59.394Z,62.74
2018-09-17T09:23:27.685Z,61.84
2018-09-17T09:25:55.972Z,60.85
2018-09-17T09:28:24.270Z,60.66
2018-09-17T09:30:52.737Z,58.72
2018-09-17T09:33:20.993Z,58.01
2018-09-17T09:35:49.319Z,57.84
2018-09-17T09:38:17.651Z,58.02
2018-09-17T09:40:45.952Z,57.27
2018-09-17T09:43:14.270Z,57.69
2018-09-17T09:45:42.550Z,57.71
2018-09-17T09:48:10.835Z,58.12
2018-09-17T09:50:39.247Z,57.43
2018-09-17T09:53:07.543Z,57.06
2018-09-17T09:55:35.904Z,56.92
2018-09-17T09:58:04.213Z,57.14
2018-09-17T10:00:37.843Z,57.77
2018-09-17T10:03:11.649Z,57.25
2018-09-17T10:05:39.932Z,57.17
2018-09-17T10:08:08.292Z,57.10
2018-09-17T10:10:41.892Z,56.28
2018-09-17T10:13:15.618Z,55.68
2018-09-17T10:15:49.360Z,55.66
2018-09-17T10:18:22.792Z,55.21
2018-09-17T10:20:51.105Z,55.37
2018-09-17T10:23:19.415Z,55.36
2018-09-17T10:25:47.743Z,54.23
2018-09-17T10:28:16.015Z,54.05
2018-09-17T10:30:44.423Z,53.80
2018-09-17T10:33:12.761Z,54.79
2018-09-17T10:35:41.089Z,54.04
2018-09-17T10:38:09.416Z,53.89
2018-09-17T10:40:37.743Z,54.39
2018-09-17T10:43:06.203Z,54.22
2018-09-17T10:45:34.529Z,53.80
2018-09-17T10:48:02.834Z,54.28
2018-09-17T10:50:31.127Z,53.98
2018-09-17T10:52:59.422Z,54.16
2018-09-17T10:55:27.789Z,53.64
2018-09-17T10:57:56.170Z,54.19
2018-09-17T11:00:24.595Z,53.51
2018-09-17T11:02:53.336Z,53.34
2018-09-17T11:05:21.666Z,53.86
2018-09-17T11:07:49.951Z,53.47
2018-09-17T11:10:18.248Z,52.09
2018-09-17T11:12:46.547Z,53.21
2018-09-17T11:15:14.861Z,53.16
2018-09-17T11:17:43.276Z,52.70
2018-09-17T11:20:11.490Z,51.76
2018-09-17T11:22:39.785Z,51.29
2018-09-17T11:25:08.194Z,51.45
2018-09-17T11:27:36.464Z,51.95
2018-09-17T11:30:04.908Z,51.25
2018-09-17T11:32:33.583Z,51.66
2018-09-17T11:35:01.922Z,50.27
2018-09-17T11:37:30.199Z,50.54
2018-09-17T11:39:58.520Z,50.51
2018-09-17T11:42:26.863Z,49.22
2018-09-17T11:44:55.150Z,49.33
2018-09-17T11:47:23.446Z,49.71
2018-09-17T11:49:51.748Z,50.70
2018-09-17T11:52:20.120Z,49.07
2018-09-17T11:54:48.435Z,49.73
2018-09-17T11:57:16.710Z,49.18
2018-09-17T11:59:45.045Z,48.82
2018-09-17T12:02:18.960Z,48.10
2018-09-17T12:04:52.461Z,47.82
2018-09-17T12:07:52.599Z,48.43
2018-09-17T12:10:20.881Z,47.63
2018-09-17T12:12:49.174Z,47.07
2018-09-17T12:15:17.468Z,46.82
2018-09-17T12:17:45.789Z,46.55
2018-09-17T12:20:14.158Z,46.41
2018-09-17T12:22:42.502Z,45.68
2018-09-17T12:25:10.807Z,44.93
2018-09-17T12:27:39.119Z,44.53
2018-09-17T12:30:07.446Z,44.11
2018-09-17T12:32:35.776Z,44.03
2018-09-17T12:35:04.075Z,44.07
2018-09-17T12:37:32.364Z,44.02
2018-09-17T12:40:00.653Z,45.16
2018-09-17T12:42:28.949Z,45.26
2018-09-17T12:44:57.363Z,45.21
2018-09-17T12:47:25.661Z,45.67
2018-09-17T12:49:53.992Z,45.76
2018-09-17T12:52:22.279Z,45.06
2018-09-17T12:54:50.620Z,45.53
2018-09-17T12:57:19.015Z,45.36
2018-09-17T12:59:47.267Z,45.01
2018-09-17T13:02:15.689Z,45.10
2018-09-17T13:04:43.999Z,44.94
2018-09-17T13:07:12.294Z,45.36
2018-09-17T13:09:40.565Z,45.86
2018-09-17T13:12:08.857Z,45.33
2018-09-17T13:14:37.193Z,44.71
2018-09-17T13:17:05.600Z,44.70
2018-09-17T13:19:33.881Z,45.38
2018-09-17T13:22:02.221Z,44.33
2018-09-17T13:24:30.540Z,43.90
2018-09-17T13:26:58.856Z,42.29
2018-09-17T13:29:27.149Z,42.90
2018-09-17T13:31:55.480Z,41.95
2018-09-17T13:34:23.746Z,42.55
2018-09-17T13:36:52.080Z,42.30
2018-09-17T13:39:20.428Z,43.06
2018-09-17T13:41:48.751Z,42.04
2018-09-17T13:44:17.175Z,42.46
2018-09-17T13:46:45.467Z,41.94
2018-09-17T13:49:13.773Z,42.29
2018-09-17T13:51:42.122Z,41.14
2018-09-17T13:54:10.423Z,41.32
2018-09-17T13:56:38.779Z,41.03
2018-09-17T13:59:07.097Z,40.36
2018-09-17T14:01:35.434Z,41.84
2018-09-17T14:04:03.860Z,40.25
2018-09-17T14:06:32.096Z,40.81
2018-09-17T14:09:00.407Z,40.31
2018-09-17T14:11:28.767Z,40.46
2018-09-17T14:13:57.082Z,40.57
2018-09-17T14:16:30.683Z,39.73
2018-09-17T14:18:59.000Z,40.83
2018-09-17T14:21:27.309Z,39.80
2018-09-17T14:23:55.613Z,41.19
2018-09-17T14:26:24.172Z,41.54
2018-09-17T14:28:52.441Z,40.45
2018-09-17T14:31:24.915Z,39.51
2018-09-17T14:33:54.049Z,38.57
2018-09-17T14:36:22.373Z,39.07
2018-09-17T14:38:50.687Z,38.36
2018-09-17T14:41:18.985Z,37.56
2018-09-17T14:43:47.557Z,37.33
2018-09-17T14:46:15.904Z,36.65
2018-09-17T14:48:44.518Z,36.95
2018-09-17T14:51:12.821Z,37.83
2018-09-17T14:53:41.438Z,37.37
2018-09-17T14:56:09.764Z,36.34
2018-09-17T14:58:38.092Z,36.65
2018-09-17T15:01:06.431Z,35.87
2018-09-17T15:03:34.718Z,37.32
2018-09-17T15:06:03.039Z,37.96
2018-09-17T15:08:31.428Z,38.21
2018-09-17T15:10:59.718Z,38.05
2018-09-17T15:13:28.010Z,38.75
2018-09-17T15:15:58.375Z,39.23
2018-09-17T15:18:27.216Z,39.26
2018-09-17T15:20:55.846Z,39.18
2018-09-17T15:23:24.218Z,37.58
2018-09-17T15:25:52.522Z,37.98
2018-09-17T15:28:20.942Z,37.83
2018-09-17T15:30:49.265Z,38.64
2018-09-17T15:33:17.571Z,38.35
2018-09-17T15:35:45.911Z,37.87
2018-09-17T15:38:14.352Z,38.47
2018-09-17T15:40:42.660Z,38.41
2018-09-17T15:43:10.946Z,37.99
2018-09-17T15:45:39.286Z,37.17
2018-09-17T15:48:07.628Z,37.56
2018-09-17T15:50:35.958Z,37.17
2018-09-17T15:53:04.269Z,36.64
2018-09-17T15:55:32.595Z,37.01
2018-09-17T15:58:01.029Z,37.45
2018-09-17T16:00:29.399Z,37.11
2018-09-17T16:02:57.791Z,37.32
2018-09-17T16:05:26.037Z,37.59
2018-09-17T16:07:54.375Z,38.59
2018-09-17T16:10:22.688Z,38.69
2018-09-17T16:12:50.989Z,38.48
2018-09-17T16:15:19.400Z,38.43
2018-09-17T16:17:47.707Z,37.48
2018-09-17T16:20:16.171Z,38.01
2018-09-17T16:22:44.471Z,38.84
2018-09-17T16:25:12.806Z,38.26
2018-09-17T16:27:41.295Z,37.45
2018-09-17T16:30:10.974Z,38.14
2018-09-17T16:32:39.543Z,37.88
2018-09-17T16:35:07.839Z,39.22
2018-09-17T16:37:36.348Z,39.99
2018-09-17T16:40:04.715Z,39.09
2018-09-17T16:42:33.019Z,39.50
2018-09-17T16:45:01.570Z,40.18
2018-09-17T16:47:30.146Z,40.28
2018-09-17T16:49:58.469Z,41.07
2018-09-17T16:52:26.767Z,41.85
2018-09-17T16:54:55.093Z,41.40
2018-09-17T16:57:23.433Z,42.05
2018-09-17T16:59:52.129Z,42.26
2018-09-17T17:02:20.519Z,42.97
2018-09-17T17:04:48.908Z,43.11
2018-09-17T17:07:17.216Z,43.90
2018-09-17T17:09:45.553Z,45.22
2018-09-17T17:12:13.831Z,45.81
2018-09-17T17:14:42.290Z,46.18
2018-09-17T17:17:10.624Z,46.91
2018-09-17T17:19:38.975Z,47.81
2018-09-17T17:22:07.555Z,48.51
2018-09-17T17:24:36.103Z,48.27
2018-09-17T17:27:04.401Z,48.60
2018-09-17T17:29:32.733Z,49.94
2018-09-17T17:32:01.151Z,50.25
2018-09-17T17:34:29.470Z,50.83
2018-09-17T17:36:57.752Z,51.50
2018-09-17T17:39:26.129Z,52.73
2018-09-17T17:41:54.432Z,53.12
2018-09-17T17:44:23.186Z,53.23
2018-09-17T17:46:51.454Z,53.28
2018-09-17T17:49:19.819Z,53.75
2018-09-17T17:51:48.167Z,53.57
2018-09-17T17:54:16.435Z,53.84
2018-09-17T17:56:44.756Z,53.86
2018-09-17T17:59:13.097Z,54.23
2018-09-17T18:01:41.390Z,54.31
2018-09-17T18:04:10.226Z,54.26
2018-09-17T18:06:38.760Z,55.06
2018-09-17T18:09:09.397Z,54.92
2018-09-17T18:11:38.066Z,55.99
2018-09-17T18:14:06.657Z,55.82
2018-09-17T18:16:35.072Z,56.46
2018-09-17T18:19:03.678Z,56.98
2018-09-17T18:21:32.368Z,57.83
2018-09-17T18:24:00.768Z,58.34
2018-09-17T18:26:29.778Z,58.25
2018-09-17T18:28:58.111Z,58.97
2018-09-17T18:31:26.428Z,59.16
2018-09-17T18:33:54.801Z,59.94
2018-09-17T18:36:23.287Z,60.59
2018-09-17T18:38:51.691Z,61.28
2018-09-17T18:41:19.916Z,62.29
2018-09-17T18:43:48.205Z,62.71
2018-09-17T18:46:16.548Z,62.97
2018-09-17T18:48:44.881Z,63.01
2018-09-17T18:51:13.245Z,62.60
2018-09-17T18:53:41.596Z,62.68
2018-09-17T18:56:09.903Z,62.37
2018-09-17T18:58:38.216Z,61.49
2018-09-17T19:01:06.717Z,61.92
2018-09-17T19:03:35.066Z,61.22
2018-09-17T19:06:03.449Z,62.08
2018-09-17T19:08:31.764Z,62.35
2018-09-17T19:11:00.157Z,63.33
2018-09-17T19:13:28.510Z,63.76
2018-09-17T19:15:57.905Z,64.20
2018-09-17T19:18:26.267Z,64.16
2018-09-17T19:20:54.803Z,65.03
2018-09-17T19:23:28.241Z,64.66
2018-09-17T19:25:56.860Z,65.22
2018-09-17T19:28:30.508Z,65.71
2018-09-17T19:30:58.858Z,66.58
2018-09-17T19:33:27.156Z,67.08
2018-09-17T19:35:55.515Z,66.96
2018-09-17T19:38:29.120Z,67.15
2018-09-17T19:40:57.404Z,68.16
2018-09-17T19:43:25.758Z,68.01
2018-09-17T19:45:59.508Z,67.80
2018-09-17T19:48:27.880Z,67.83
2018-09-17T19:51:01.542Z,67.37
2018-09-17T19:53:29.866Z,67.22
2018-09-17T19:55:58.230Z,67.37
2018-09-17T19:58:31.734Z,66.31
2018-09-17T20:01:00.135Z,65.73
2018-09-17T20:03:28.366Z,65.41
2018-09-17T20:06:01.983Z,65.38
2018-09-17T20:08:30.278Z,65.78
2018-09-17T20:10:58.570Z,66.35
2018-09-17T20:13:26.864Z,66.66
2018-09-17T20:15:55.231Z,67.25
2018-09-17T20:18:23.539Z,67.95
2018-09-17T20:20:51.884Z,68.33
2018-09-17T20:23:20.169Z,68.47
2018-09-17T20:25:48.456Z,68.45
2018-09-17T20:28:16.782Z,69.07
2018-09-17T20:30:45.115Z,68.65
2018-09-17T20:33:13.412Z,69.31
2018-09-17T20:35:41.816Z,69.45
2018-09-17T20:38:10.107Z,69.72
2018-09-17T20:40:41.069Z,69.38
2018-09-17T20:43:09.588Z,69.92
2018-09-17T20:45:37.907Z,70.27
2018-09-17T20:48:06.296Z,69.63
2018-09-17T20:50:34.573Z,69.58
2018-09-17T20:53:03.324Z,69.67
2018-09-17T20:55:31.738Z,70.45
2018-09-17T20:58:00.012Z,70.21
2018-09-17T21:00:31.171Z,70.78
2018-09-17T21:02:59.420Z,71.15
2018-09-17T21:05:27.737Z,72.17
2018-09-17T21:07:56.051Z,71.71
2018-09-17T21:11:27.620Z,71.31
2018-09-17T21:13:55.948Z,71.14
2018-09-17T21:16:24.427Z,71.09
2018-09-17T21:18:52.746Z,71.44
2018-09-17T21:21:21.192Z,71.40
2018-09-17T21:23:49.503Z,71.51
2018-09-17T21:26:17.798Z,71.85
2018-09-17T21:28:46.154Z,71.69
2018-09-17T21:31:14.490Z,71.28
2018-09-17T21:33:42.878Z,70.99
2018-09-17T21:36:11.124Z,71.13
2018-09-17T21:38:39.407Z,70.60
2018-09-17T21:41:07.761Z,70.45
2018-09-17T21:43:36.060Z,70.61
2018-09-17T21:46:04.365Z,71.03
2018-09-17T21:48:32.629Z,70.84
2018-09-17T21:51:01.026Z,70.85
2018-09-17T21:53:29.308Z,71.81
2018-09-17T21:55:57.695Z,72.25
2018-09-17T21:58:25.933Z,72.34
2018-09-17T22:01:00.984Z,71.84
2018-09-17T22:03:30.603Z,72.81
2018-09-17T22:05:59.300Z,73.01
2018-09-17T22:08:27.784Z,73.12
2018-09-17T22:10:56.163Z,72.74
2018-09-17T22:13:24.461Z,72.87
2018-09-17T22:15:52.743Z,72.69
2018-09-17T22:18:21.201Z,72.51
2018-09-17T22:20:49.516Z,71.47
2018-09-17T22:23:17.828Z,71.92
2018-09-17T22:25:46.126Z,72.09
2018-09-17T22:28:14.445Z,71.53
2018-09-17T22:30:42.727Z,71.52
2018-09-17T22:33:11.050Z,71.62
2018-09-17T22:35:39.331Z,71.19
2018-09-17T22:38:07.853Z,71.45
2018-09-17T22:40:36.072Z,71.52
2018-09-17T22:43:04.373Z,71.37
2018-09-17T22:45:32.658Z,71.70
2018-09-17T22:48:00.966Z,71.27
2018-09-17T22:50:29.896Z,71.96
2018-09-17T22:52:58.349Z,71.49
2018-09-17T22:55:26.611Z,72.05
2018-09-17T22:57:54.910Z,72.34
2018-09-17T23:00:23.139Z,71.80
2018-09-17T23:02:51.420Z,71.35
2018-09-17T23:05:19.692Z,71.21
2018-09-17T23:07:47.989Z,72.39
2018-09-17T23:10:16.337Z,71.88
2018-09-17T23:12:44.601Z,71.88
2018-09-17T23:15:12.886Z,72.04
2018-09-17T23:17:41.302Z,72.67
2018-09-17T23:20:09.553Z,73.05
2018-09-17T23:22:37.835Z,72.70
2018-09-17T23:25:06.192Z,72.31
2018-09-17T23:27:34.471Z,72.03
2018-09-17T23:30:02.841Z,72.56
2018-09-17T23:32:31.081Z,72.70
2018-09-17T23:34:59.418Z,72.50
2018-09-17T23:37:27.684Z,72.37
2018-09-17T23:39:55.979Z,72.30
2018-09-17T23:42:24.297Z,72.09
2018-09-17T23:44:52.564Z,71.51
2018-09-17T23:47:20.840Z,72.67
2018-09-17T23:49:49.098Z,72.89
2018-09-17T23:52:17.359Z,72.56
2018-09-17T23:54:45.703Z,73.09
2018-09-17T23:57:13.991Z,72.87
2018-09-17T23:59:42.280Z,72.82
